Time;durP1;ratioP1;P1;durP2;ratioP2;P2;SDS_P1;SDS_P2;PMS_P1;PMS_P2;Temp;Humidity;BMP_temperature;BMP_pressure;BME280_temperature;BME280_humidity;BME280_pressure;Samples;Min_cycle;Max_cycle;Signal;HPM_P1;HPM_P2
2022/10/27 00:00:44;;;;;;;;;3.75;3.75;;;;;15.99;77.78;102073.56;4971571;28;8825;-66
2022/10/27 00:03:13;;;;;;;;;4.00;3.00;;;;;15.95;77.85;102073.13;4965491;28;8933;-66
2022/10/27 00:05:42;;;;;;;;;2.25;2.25;;;;;15.94;77.94;102073.31;4972410;28;8847;-68
2022/10/27 00:08:16;;;;;;;;;3.00;3.00;;;;;15.93;77.53;102068.94;4971983;28;9002;-66
2022/10/27 00:10:43;;;;;;;;;2.00;2.00;;;;;15.93;77.85;102066.22;4978714;28;8886;-67
2022/10/27 00:13:13;;;;;;;;;1.00;1.00;;;;;15.92;77.98;102068.09;4968447;28;8928;-66
2022/10/27 00:15:40;;;;;;;;;3.00;3.00;;;;;15.95;78.01;102072.28;4972519;28;8864;-67
2022/10/27 00:18:08;;;;;;;;;2.00;2.00;;;;;15.96;77.85;102063.09;4967421;28;8835;-68
2022/10/27 00:20:36;;;;;;;;;4.75;2.75;;;;;15.95;77.84;102061.41;4970920;28;8821;-67
2022/10/27 00:23:02;;;;;;;;;4.33;4.33;;;;;15.96;78.10;102063.09;4973892;28;9546;-68
2022/10/27 00:25:28;;;;;;;;;3.75;3.00;;;;;15.96;78.17;102063.09;4966575;28;8905;-69
2022/10/27 00:27:55;;;;;;;;;3.75;2.00;;;;;15.96;77.88;102063.09;4952470;28;8875;-67
2022/10/27 00:30:21;;;;;;;;;2.75;2.25;;;;;15.94;77.92;102060.59;4956839;28;8893;-66
2022/10/27 00:32:47;;;;;;;;;1.50;1.00;;;;;15.94;78.23;102076.03;4963751;28;8836;-66
2022/10/27 00:35:15;;;;;;;;;2.25;2.25;;;;;15.94;77.72;102073.31;4960679;28;8887;-66
2022/10/27 00:37:41;;;;;;;;;3.50;3.00;;;;;15.92;78.27;102088.97;4970545;28;8860;-66
2022/10/27 00:40:08;;;;;;;;;2.00;1.75;;;;;15.89;78.18;102086.66;4953594;28;8870;-67
2022/10/27 00:42:34;;;;;;;;;3.00;3.00;;;;;15.86;78.40;102074.31;4971416;28;8836;-68
2022/10/27 00:45:01;;;;;;;;;3.00;3.00;;;;;15.84;78.25;102076.41;4972021;28;8855;-68
2022/10/27 00:47:34;;;;;;;;;5.50;4.00;;;;;15.83;78.22;102075.53;4966536;28;8823;-68
2022/10/27 00:50:07;;;;;;;;;4.33;4.33;;;;;15.86;78.33;102070.78;4954248;28;8853;-68
2022/10/27 00:52:41;;;;;;;;;5.25;5.25;;;;;15.82;78.54;102076.59;4957951;28;8849;-66
2022/10/27 00:55:18;;;;;;;;;5.25;5.25;;;;;15.81;78.85;102079.50;4962391;28;8859;-68
2022/10/27 00:57:47;;;;;;;;;4.67;4.67;;;;;15.80;78.78;102075.97;4961875;28;8865;-67
2022/10/27 01:00:15;;;;;;;;;6.00;6.00;;;;;15.80;78.62;102084.09;4960959;28;8992;-66
2022/10/27 01:02:41;;;;;;;;;6.00;6.00;;;;;15.80;79.04;102075.13;4962324;28;9623;-68
2022/10/27 01:05:15;;;;;;;;;3.50;3.50;;;;;15.79;78.70;102081.56;4970199;28;8820;-68
2022/10/27 01:07:43;;;;;;;;;3.50;3.25;;;;;15.80;79.09;102091.41;4977186;28;8941;-68
2022/10/27 01:10:11;;;;;;;;;5.00;3.00;;;;;15.79;78.62;102082.41;4953275;28;8859;-68
2022/10/27 01:12:37;;;;;;;;;7.00;6.00;;;;;15.78;78.62;102080.75;4969665;28;8816;-67
2022/10/27 01:15:06;;;;;;;;;3.00;3.00;;;;;15.75;79.17;102085.72;4970977;28;8882;-68
2022/10/27 01:17:57;;;;;;;;;4.75;3.50;;;;;15.73;78.55;102087.81;4980357;28;8815;-65
2022/10/27 01:20:33;;;;;;;;;4.50;4.50;;;;;15.72;79.09;102091.56;4970336;28;8832;-68
2022/10/27 01:23:20;;;;;;;;;5.25;4.50;;;;;15.74;78.82;102092.19;4959282;28;8889;-68
2022/10/27 01:26:05;;;;;;;;;2.67;2.67;;;;;15.73;79.12;102091.38;4964379;28;8843;-68
2022/10/27 01:29:03;;;;;;;;;6.25;4.25;;;;;15.70;78.63;102105.31;4957974;28;8922;-67
2022/10/27 01:31:42;;;;;;;;;6.67;6.00;;;;;15.69;79.02;102102.81;4972450;28;8883;-66
2022/10/27 01:34:27;;;;;;;;;4.50;4.00;;;;;15.69;79.19;102098.22;4975797;28;9847;-66
2022/10/27 01:37:16;;;;;;;;;4.00;4.00;;;;;15.68;78.75;102096.56;4976637;28;8844;-66
2022/10/27 01:39:55;;;;;;;;;5.25;5.25;;;;;15.66;78.73;102100.50;4973991;28;8932;-66
2022/10/27 01:42:31;;;;;;;;;4.00;4.00;;;;;15.64;78.99;102106.09;4974970;28;9568;-65
2022/10/27 01:44:59;;;;;;;;;7.00;7.00;;;;;15.62;78.90;102104.59;4990052;28;8964;-66
2022/10/27 01:47:26;;;;;;;;;4.67;3.33;;;;;15.61;78.81;102106.47;4970016;28;9048;-67
2022/10/27 01:49:55;;;;;;;;;7.00;7.00;;;;;15.61;78.88;102109.19;4971060;28;9069;-66
2022/10/27 01:52:40;;;;;;;;;3.75;3.75;;;;;15.63;78.83;102103.56;4975096;28;8832;-67
2022/10/27 01:55:33;;;;;;;;;4.67;4.67;;;;;15.59;78.97;102097.69;4974747;28;8844;-66
2022/10/27 01:58:38;;;;;;;;;5.00;5.00;;;;;15.58;79.16;102096.84;4971070;28;9083;-67
2022/10/27 02:01:30;;;;;;;;;5.50;4.25;;;;;15.59;78.91;102090.38;4972619;28;9050;-67
2022/10/27 02:04:12;;;;;;;;;4.33;3.00;;;;;15.59;79.02;102084.09;4967161;28;8863;-65
2022/10/27 02:06:51;;;;;;;;;3.67;2.33;;;;;15.57;78.76;102083.47;4973125;28;9648;-67
2022/10/27 02:09:42;;;;;;;;;6.67;3.33;;;;;15.56;78.53;102087.25;4973793;28;9617;-67
2022/10/27 02:12:25;;;;;;;;;8.67;6.33;;;;;15.52;78.73;102077.81;4972567;28;9045;-66
2022/10/27 02:14:55;;;;;;;;;5.00;5.00;;;;;15.51;78.75;102074.22;4974596;28;8939;-67
2022/10/27 02:17:28;;;;;;;;;7.00;7.00;;;;;15.49;78.69;102076.31;4966957;28;9015;-68
2022/10/27 02:19:57;;;;;;;;;3.50;3.50;;;;;15.48;78.98;102080.06;4965540;28;9011;-67
2022/10/27 02:22:26;;;;;;;;;6.67;6.67;;;;;15.45;78.76;102079.63;4967527;28;9558;-66
2022/10/27 02:24:54;;;;;;;;;7.00;7.00;;;;;15.42;78.73;102078.13;4968983;28;9038;-67
2022/10/27 02:27:32;;;;;;;;;2.75;2.50;;;;;15.42;79.27;102075.41;4985181;28;9179;-67
2022/10/27 02:29:59;;;;;;;;;7.25;5.50;;;;;15.40;79.01;102076.66;4974131;28;8828;-67
2022/10/27 02:32:28;;;;;;;;;6.00;6.00;;;;;15.37;79.03;102077.06;4974506;28;8820;-67
2022/10/27 02:34:56;;;;;;;;;8.33;7.67;;;;;15.37;79.24;102082.47;4974138;28;9112;-66
2022/10/27 02:37:40;;;;;;;;;8.00;7.00;;;;;15.37;79.16;102083.31;4966092;28;8953;-67
2022/10/27 02:40:07;;;;;;;;;6.33;5.33;;;;;15.34;79.07;102078.28;4963237;28;9068;-67
2022/10/27 02:42:34;;;;;;;;;5.00;5.00;;;;;15.30;79.18;102074.28;4969613;28;9210;-67
2022/10/27 02:45:00;;;;;;;;;5.33;5.33;;;;;15.28;79.21;102074.47;4961171;28;9090;-67
2022/10/27 02:47:26;;;;;;;;;6.67;5.67;;;;;15.27;79.25;102077.38;4972549;28;8927;-67
2022/10/27 02:49:53;;;;;;;;;6.00;5.67;;;;;15.26;79.38;102075.69;4973839;28;9170;-67
2022/10/27 02:52:19;;;;;;;;;7.00;5.00;;;;;15.27;79.66;102066.53;4965152;28;9173;-66
2022/10/27 02:54:47;;;;;;;;;8.00;7.00;;;;;15.26;79.17;102062.13;4973846;28;9026;-67
2022/10/27 02:57:15;;;;;;;;;5.00;5.00;;;;;15.26;79.24;102059.41;4970359;28;9018;-66
2022/10/27 02:59:41;;;;;;;;;6.00;5.00;;;;;15.23;79.48;102060.66;4966271;28;8923;-67
2022/10/27 03:02:08;;;;;;;;;5.33;5.33;;;;;15.22;79.21;102058.97;4964314;28;9048;-67
2022/10/27 03:04:35;;;;;;;;;6.33;6.00;;;;;15.20;79.26;102061.06;4962726;28;8930;-67
2022/10/27 03:07:02;;;;;;;;;9.33;8.33;;;;;15.19;79.37;102067.53;4970069;28;9169;-66
2022/10/27 03:09:29;;;;;;;;;6.67;6.00;;;;;15.19;79.16;102069.38;4973540;28;9029;-67
2022/10/27 03:11:55;;;;;;;;;6.33;6.00;;;;;15.19;79.33;102070.22;4973424;28;9181;-67
2022/10/27 03:14:22;;;;;;;;;5.00;4.33;;;;;15.20;79.14;102066.47;4972272;28;8937;-65
2022/10/27 03:16:48;;;;;;;;;6.50;5.50;;;;;15.19;79.11;102062.09;4973001;28;9081;-66
2022/10/27 03:19:14;;;;;;;;;6.00;4.00;;;;;15.17;78.91;102057.88;4954508;28;8874;-66
2022/10/27 03:21:41;;;;;;;;;6.00;6.00;;;;;15.13;79.17;102060.16;4965832;28;9115;-65
2022/10/27 03:24:07;;;;;;;;;5.33;4.33;;;;;15.14;79.29;102064.53;4956869;28;9050;-66
2022/10/27 03:26:33;;;;;;;;;6.00;4.67;;;;;15.16;78.97;102058.94;4972727;28;9006;-67
2022/10/27 03:29:03;;;;;;;;;5.33;5.33;;;;;15.17;78.97;102063.31;4973209;28;8969;-67
2022/10/27 03:31:29;;;;;;;;;7.00;4.67;;;;;15.17;79.09;102053.31;4973178;28;9752;-67
2022/10/27 03:33:55;;;;;;;;;3.00;3.00;;;;;15.16;79.06;102057.06;4965206;28;9085;-64
2022/10/27 03:36:22;;;;;;;;;5.67;5.67;;;;;15.15;79.20;102068.94;4967383;28;8947;-67
2022/10/27 03:38:48;;;;;;;;;7.00;3.00;;;;;15.13;79.08;102068.28;4968957;28;9730;-68
2022/10/27 03:41:15;;;;;;;;;5.67;5.67;;;;;15.10;78.81;102065.94;4956282;28;9009;-67
2022/10/27 03:43:41;;;;;;;;;6.33;6.33;;;;;15.07;78.79;102072.63;4962030;28;9096;-67
2022/10/27 03:46:09;;;;;;;;;6.00;5.33;;;;;15.07;79.04;102061.78;4971635;28;8961;-67
2022/10/27 03:48:35;;;;;;;;;7.00;4.00;;;;;15.08;79.08;102066.16;4969123;28;9138;-67
2022/10/27 03:51:02;;;;;;;;;5.00;3.00;;;;;15.11;78.84;102066.78;4972565;28;8996;-67
2022/10/27 03:53:28;;;;;;;;;5.00;5.00;;;;;15.09;78.90;102064.28;4966882;28;8948;-67
2022/10/27 03:55:54;;;;;;;;;6.33;5.33;;;;;15.07;78.80;102064.50;4972712;28;9008;-67
2022/10/27 03:58:21;;;;;;;;;6.00;5.00;;;;;15.07;78.90;102064.50;4972167;28;8971;-68
2022/10/27 04:00:47;;;;;;;;;5.00;5.00;;;;;15.06;79.09;102068.22;4972555;28;9009;-67
2022/10/27 04:03:14;;;;;;;;;6.00;6.00;;;;;15.02;79.01;102072.34;4960900;28;9881;-66
2022/10/27 04:05:40;;;;;;;;;2.33;2.33;;;;;15.01;79.20;102072.53;4972534;28;9155;-67
2022/10/27 04:08:07;;;;;;;;;5.33;5.33;;;;;15.02;79.32;102074.22;4972486;28;9015;-67
2022/10/27 04:10:33;;;;;;;;;4.00;4.00;;;;;15.02;79.12;102075.06;4972280;28;8917;-67
2022/10/27 04:12:59;;;;;;;;;4.67;4.67;;;;;15.00;78.93;102076.31;4966249;28;9026;-66
2022/10/27 04:15:27;;;;;;;;;7.00;4.33;;;;;14.99;79.01;102082.72;4972322;28;9013;-66
2022/10/27 04:17:55;;;;;;;;;6.00;5.00;;;;;14.99;79.31;102071.88;4965124;28;8965;-67
2022/10/27 04:20:22;;;;;;;;;7.33;6.67;;;;;14.99;79.19;102085.44;4965626;28;8995;-66
2022/10/27 04:22:49;;;;;;;;;7.00;5.33;;;;;14.96;79.30;102080.44;4970238;28;8998;-66
2022/10/27 04:25:15;;;;;;;;;6.00;6.00;;;;;14.95;79.04;102087.72;4962509;28;9074;-66
2022/10/27 04:27:42;;;;;;;;;5.33;5.33;;;;;14.96;79.32;102092.13;4972199;28;9311;-67
2022/10/27 04:30:09;;;;;;;;;5.00;5.00;;;;;14.95;79.21;102089.56;4971772;28;9001;-68
2022/10/27 04:32:35;;;;;;;;;7.67;5.00;;;;;14.93;79.04;102091.66;4966026;28;9156;-67
2022/10/27 04:35:02;;;;;;;;;5.00;5.00;;;;;14.93;79.33;102095.19;4970520;28;9059;-67
2022/10/27 04:37:28;;;;;;;;;5.00;5.00;;;;;14.90;79.35;102090.16;4972018;28;9898;-67
2022/10/27 04:39:54;;;;;;;;;6.00;6.00;;;;;14.89;79.34;102093.06;4970506;28;8948;-67
2022/10/27 04:42:21;;;;;;;;;7.33;6.33;;;;;14.87;79.08;102084.28;4959704;28;9103;-67
2022/10/27 04:44:47;;;;;;;;;8.67;8.00;;;;;14.86;79.52;102088.03;4971292;28;9064;-66
2022/10/27 04:47:14;;;;;;;;;5.67;5.67;;;;;14.86;79.42;102082.59;4967612;28;9211;-67
2022/10/27 04:49:40;;;;;;;;;2.75;2.50;;;;;14.87;79.29;102082.44;4971734;28;9023;-67
2022/10/27 04:52:06;;;;;;;;;7.33;5.00;;;;;14.87;79.53;102085.13;4966566;28;9506;-66
2022/10/27 04:54:33;;;;;;;;;3.00;3.00;;;;;14.89;79.52;102084.94;4960441;28;8935;-67
2022/10/27 04:56:59;;;;;;;;;8.33;7.33;;;;;14.87;79.22;102084.28;4971581;28;8945;-67
2022/10/27 04:59:26;;;;;;;;;9.00;7.67;;;;;14.84;79.31;102083.63;4971459;28;9008;-67
2022/10/27 05:01:52;;;;;;;;;6.00;6.00;;;;;14.85;79.25;102076.34;4962104;28;9080;-67
2022/10/27 05:04:19;;;;;;;;;8.67;7.00;;;;;14.83;79.46;102079.25;4968024;28;9059;-67
2022/10/27 05:06:45;;;;;;;;;9.00;6.67;;;;;14.83;79.17;102071.13;4971501;28;8923;-67
2022/10/27 05:09:11;;;;;;;;;4.50;4.50;;;;;14.84;79.61;102061.13;4962149;28;9136;-65
2022/10/27 05:11:38;;;;;;;;;6.33;4.33;;;;;14.84;79.10;102067.38;4979260;28;8840;-64
2022/10/27 05:14:04;;;;;;;;;5.00;5.00;;;;;14.86;79.39;102063.63;4970941;28;8937;-65
2022/10/27 05:16:30;;;;;;;;;4.00;4.00;;;;;14.86;78.97;102066.34;4966388;28;8936;-65
2022/10/27 05:18:57;;;;;;;;;5.33;4.00;;;;;14.86;78.97;102052.78;4962313;28;9094;-64
2022/10/27 05:21:23;;;;;;;;;3.00;3.00;;;;;14.85;79.27;102062.78;4969251;28;8923;-66
2022/10/27 05:23:49;;;;;;;;;3.00;3.00;;;;;14.86;79.25;102056.31;4965035;28;8838;-65
2022/10/27 05:26:16;;;;;;;;;2.00;2.00;;;;;14.87;78.87;102062.59;4964149;28;8982;-65
2022/10/27 05:28:43;;;;;;;;;7.00;7.00;;;;;14.83;78.62;102048.59;4958585;28;8941;-65
2022/10/27 05:31:09;;;;;;;;;7.00;7.00;;;;;14.80;78.61;102057.94;4965312;28;8946;-66
2022/10/27 05:33:36;;;;;;;;;8.00;7.00;;;;;14.79;79.05;102041.88;4958093;28;8991;-66
2022/10/27 05:36:02;;;;;;;;;2.67;2.67;;;;;14.79;78.89;102050.84;4969921;28;9340;-65
2022/10/27 05:38:29;;;;;;;;;4.33;3.00;;;;;14.77;78.89;102036.66;4986002;28;9001;-64
2022/10/27 05:40:56;;;;;;;;;5.33;5.33;;;;;14.77;79.07;102041.22;4970191;28;9173;-65
2022/10/27 05:43:23;;;;;;;;;6.00;4.00;;;;;14.76;78.74;102050.41;4962782;28;8917;-64
2022/10/27 05:45:50;;;;;;;;;5.67;5.33;;;;;14.74;78.79;102045.16;4961026;28;9018;-66
2022/10/27 05:48:17;;;;;;;;;3.33;3.33;;;;;14.73;79.18;102048.91;4968244;28;9117;-64
2022/10/27 05:50:43;;;;;;;;;6.33;6.33;;;;;14.73;78.79;102053.50;4970054;28;8939;-65
2022/10/27 05:53:09;;;;;;;;;7.00;6.00;;;;;14.74;79.08;102049.75;4958382;28;8989;-64
2022/10/27 05:55:36;;;;;;;;;5.33;5.33;;;;;14.73;78.74;102050.78;4967261;28;8955;-65
2022/10/27 05:58:04;;;;;;;;;3.00;3.00;;;;;14.74;79.00;102056.00;4960357;28;9196;-66
2022/10/27 06:00:34;;;;;;;;;3.33;3.33;;;;;14.72;78.57;102049.09;4966718;28;9077;-66
2022/10/27 06:03:04;;;;;;;;;8.00;6.00;;;;;14.69;78.76;102055.72;4964386;28;9074;-65
2022/10/27 06:05:34;;;;;;;;;5.67;5.67;;;;;14.70;78.90;102052.00;4970934;28;9086;-65
2022/10/27 06:08:00;;;;;;;;;4.33;3.00;;;;;14.73;78.88;102048.06;4970852;28;9055;-65
2022/10/27 06:10:28;;;;;;;;;5.00;3.00;;;;;14.73;78.48;102048.91;4970003;28;9000;-64
2022/10/27 06:13:05;;;;;;;;;7.00;6.33;;;;;14.75;78.57;102054.97;4958904;28;8948;-64
2022/10/27 06:15:33;;;;;;;;;6.00;6.00;;;;;14.73;78.72;102048.91;4955812;28;9162;-65
2022/10/27 06:18:00;;;;;;;;;7.00;7.00;;;;;14.70;78.31;102049.28;4966854;28;9829;-65
2022/10/27 06:20:26;;;;;;;;;3.00;3.00;;;;;14.69;78.46;102041.34;4954929;28;9017;-63
2022/10/27 06:22:53;;;;;;;;;8.67;7.00;;;;;14.64;78.24;102031.09;4961751;28;9076;-68
2022/10/27 06:25:19;;;;;;;;;5.00;5.00;;;;;14.61;78.57;102042.31;4963703;28;8992;-66
2022/10/27 06:27:46;;;;;;;;;3.67;3.67;;;;;14.62;78.74;102038.56;4965452;28;9547;-63
2022/10/27 06:30:12;;;;;;;;;3.75;3.75;;;;;14.64;78.44;102041.09;4962427;28;9019;-65
2022/10/27 06:32:39;;;;;;;;;1.75;1.00;;;;;14.64;78.58;102032.97;4974225;28;8859;-65
2022/10/27 06:35:07;;;;;;;;;1.25;1.25;;;;;14.65;78.57;102034.63;4970738;28;8850;-66
2022/10/27 06:37:43;;;;;;;;;4.00;4.00;;;;;14.65;78.21;102030.06;4954635;28;8882;-64
2022/10/27 06:40:11;;;;;;;;;4.00;3.00;;;;;14.62;78.00;102030.44;4954930;28;8893;-64
2022/10/27 06:42:38;;;;;;;;;4.75;3.50;;;;;14.63;78.29;102026.72;4957450;28;8935;-63
2022/10/27 06:45:24;;;;;;;;;6.00;4.25;;;;;14.64;78.12;102032.97;4960392;28;8830;-64
2022/10/27 06:47:58;;;;;;;;;5.25;4.00;;;;;14.69;77.86;102025.91;4968723;28;8833;-67
2022/10/27 06:50:24;;;;;;;;;3.00;3.00;;;;;14.70;77.92;102016.75;4964214;28;8851;-64
2022/10/27 06:52:51;;;;;;;;;4.00;3.50;;;;;14.72;77.42;102016.59;4972628;28;8936;-63
2022/10/27 06:55:19;;;;;;;;;3.00;3.00;;;;;14.72;77.73;102008.44;4971335;28;8839;-66
2022/10/27 06:57:45;;;;;;;;;2.75;2.50;;;;;14.73;76.92;102010.94;4981704;28;8863;-65
2022/10/27 07:00:12;;;;;;;;;3.25;2.00;;;;;14.76;77.51;102015.16;4977122;28;8835;-64
2022/10/27 07:02:39;;;;;;;;;2.67;2.67;;;;;14.77;77.16;102014.13;4979243;28;8846;-64
2022/10/27 07:05:06;;;;;;;;;7.33;6.33;;;;;14.75;76.83;102016.19;4978667;28;9021;-62
2022/10/27 07:07:33;;;;;;;;;2.50;2.25;;;;;14.77;77.05;102019.53;4975697;28;9019;-63
2022/10/27 07:09:59;;;;;;;;;4.25;4.25;;;;;14.73;77.26;102016.38;4973299;28;8866;-65
2022/10/27 07:12:26;;;;;;;;;3.25;2.75;;;;;14.76;77.11;102016.00;4972974;28;8855;-65
2022/10/27 07:14:52;;;;;;;;;3.33;3.33;;;;;14.77;76.75;102016.84;4973453;28;8899;-64
2022/10/27 07:17:19;;;;;;;;;2.75;2.75;;;;;14.73;77.23;102019.09;4975997;28;9021;-65
2022/10/27 07:19:46;;;;;;;;;4.00;4.00;;;;;14.73;77.02;102024.50;4957594;28;8949;-63
2022/10/27 07:22:12;;;;;;;;;3.00;3.00;;;;;14.70;76.96;102016.75;4971943;28;8828;-65
2022/10/27 07:24:39;;;;;;;;;3.50;3.50;;;;;14.64;77.18;102014.00;4972016;28;8917;-64
2022/10/27 07:27:05;;;;;;;;;5.00;3.33;;;;;14.67;76.89;102022.59;4965465;28;8845;-65
2022/10/27 07:29:36;;;;;;;;;5.50;4.75;;;;;14.69;76.87;102019.66;4972992;28;9037;-65
2022/10/27 07:32:03;;;;;;;;;5.00;5.00;;;;;14.71;76.53;102015.75;4963229;28;8868;-64
2022/10/27 07:34:29;;;;;;;;;8.33;5.00;;;;;14.72;76.44;102014.72;4953075;28;8930;-67
2022/10/27 07:36:55;;;;;;;;;2.67;2.67;;;;;14.74;76.56;102009.91;4961933;28;8956;-66
2022/10/27 07:39:22;;;;;;;;;3.67;3.67;;;;;14.75;76.21;102006.19;4970649;28;9003;-64
2022/10/27 07:41:48;;;;;;;;;3.00;3.00;;;;;14.75;76.24;102005.38;4962170;28;9174;-64
2022/10/27 07:44:14;;;;;;;;;6.00;6.00;;;;;14.70;76.40;102015.91;4966066;28;9087;-64
2022/10/27 07:46:41;;;;;;;;;5.67;4.00;;;;;14.78;76.19;102015.78;4960748;28;9027;-64
2022/10/27 07:49:07;;;;;;;;;6.33;5.33;;;;;14.87;75.70;102013.78;4965429;28;8999;-68
2022/10/27 07:51:34;;;;;;;;;4.00;4.00;;;;;14.90;75.51;102022.38;4966462;28;9085;-64
2022/10/27 07:54:00;;;;;;;;;5.75;4.50;;;;;14.93;75.08;102021.16;4975121;28;9008;-65
2022/10/27 07:56:26;;;;;;;;;5.50;5.50;;;;;15.03;74.59;102021.69;4990853;28;8849;-64
2022/10/27 07:58:53;;;;;;;;;5.50;3.00;;;;;15.11;74.47;102024.25;4969162;28;9550;-66
2022/10/27 08:01:19;;;;;;;;;5.50;5.50;;;;;15.21;74.31;102032.06;4964638;28;8848;-64
2022/10/27 08:03:46;;;;;;;;;4.75;4.75;;;;;15.26;73.89;102019.56;4970568;28;8824;-66
2022/10/27 08:06:16;;;;;;;;;4.00;4.00;;;;;15.29;73.44;102012.91;4967623;28;8848;-65
2022/10/27 08:08:42;;;;;;;;;3.25;3.25;;;;;15.39;72.87;102004.44;4963329;28;8893;-63
2022/10/27 08:11:09;;;;;;;;;3.00;3.00;;;;;15.41;72.76;102013.22;4964248;28;8851;-65
2022/10/27 08:13:35;;;;;;;;;6.33;3.00;;;;;15.42;72.84;102009.47;4968484;28;9554;-65
2022/10/27 08:16:02;;;;;;;;;5.50;5.00;;;;;15.45;72.80;102014.50;4959803;28;9107;-64
2022/10/27 08:18:28;;;;;;;;;5.00;2.00;;;;;15.55;72.26;102009.53;4970048;28;8837;-66
2022/10/27 08:20:55;;;;;;;;;3.50;3.50;;;;;15.57;72.33;102002.06;4960410;28;8850;-66
2022/10/27 08:23:23;;;;;;;;;4.50;2.25;;;;;15.61;72.39;102007.94;4959093;28;8838;-66
2022/10/27 08:25:50;;;;;;;;;5.50;4.00;;;;;15.58;72.45;102001.00;4952867;28;8847;-65
2022/10/27 08:28:17;;;;;;;;;3.50;3.50;;;;;15.60;72.29;102009.81;4969854;28;9606;-67
2022/10/27 08:30:43;;;;;;;;;5.25;5.25;;;;;15.67;71.55;102018.00;4971640;28;8864;-66
2022/10/27 08:33:18;;;;;;;;;4.25;3.25;;;;;15.67;71.95;102007.16;4969690;28;8833;-66
2022/10/27 08:35:45;;;;;;;;;4.00;4.00;;;;;15.70;71.73;101995.91;4953790;28;8966;-66
2022/10/27 08:38:13;;;;;;;;;3.50;3.50;;;;;15.75;71.45;101988.00;4967989;28;8860;-64
2022/10/27 08:40:51;;;;;;;;;4.00;2.50;;;;;15.70;71.00;101996.75;4956989;28;8865;-65
2022/10/27 08:43:38;;;;;;;;;2.00;2.00;;;;;15.75;71.35;101982.56;4956146;28;8847;-65
2022/10/27 08:46:13;;;;;;;;;2.00;2.00;;;;;15.76;71.06;101985.09;4960972;28;8824;-65
2022/10/27 08:48:43;;;;;;;;;3.00;3.00;;;;;15.83;70.61;101991.38;4963485;28;8869;-65
2022/10/27 08:51:17;;;;;;;;;7.00;5.00;;;;;15.83;70.73;101987.81;4960288;28;8981;-65
2022/10/27 08:53:47;;;;;;;;;3.00;2.00;;;;;15.81;70.88;101990.75;4966834;28;8879;-66
2022/10/27 08:56:15;;;;;;;;;5.50;4.50;;;;;15.90;70.57;101998.72;4955684;28;8838;-67
2022/10/27 08:58:47;;;;;;;;;3.00;3.00;;;;;15.93;70.50;101976.59;4964461;28;8861;-66
2022/10/27 09:01:26;;;;;;;;;2.00;2.00;;;;;15.98;70.15;101977.66;4963438;28;8860;-64
2022/10/27 09:04:14;;;;;;;;;3.00;3.00;;;;;16.02;70.10;101970.78;4960436;28;8855;-65
2022/10/27 09:07:09;;;;;;;;;2.00;2.00;;;;;16.10;70.25;101977.94;4956717;28;8871;-65
2022/10/27 09:09:49;;;;;;;;;14.67;14.67;;;;;16.13;69.90;101982.13;4965716;28;8829;-65
2022/10/27 09:12:28;;;;;;;;;3.00;3.00;;;;;16.03;70.10;101980.59;4963494;28;9161;-65
2022/10/27 09:15:32;;;;;;;;;4.00;2.00;;;;;16.02;69.62;101972.66;4957741;28;8831;-65
2022/10/27 09:18:16;;;;;;;;;3.50;3.50;;;;;16.05;70.07;101978.53;4960738;28;9013;-65
2022/10/27 09:20:53;;;;;;;;;3.00;3.00;;;;;16.07;69.67;101972.91;4959136;28;8852;-64
2022/10/27 09:23:33;;;;;;;;;1.75;1.75;;;;;16.15;69.19;101972.72;4959742;28;9538;-64
2022/10/27 09:25:59;;;;;;;;;2.00;2.00;;;;;16.14;69.21;101960.19;4961012;28;8874;-64
2022/10/27 09:28:45;;;;;;;;;5.50;2.75;;;;;16.11;68.75;101959.75;4969139;28;8932;-64
2022/10/27 09:31:29;;;;;;;;;1.75;1.25;;;;;16.18;68.70;101961.44;4962283;28;9517;-65
2022/10/27 09:34:20;;;;;;;;;4.75;3.00;;;;;16.17;68.90;101956.22;4968863;28;8894;-65
2022/10/27 09:36:46;;;;;;;;;2.75;2.75;;;;;16.24;68.65;101948.91;4958979;28;8852;-64
2022/10/27 09:39:12;;;;;;;;;1.75;1.75;;;;;16.32;68.12;101940.56;4970814;28;8844;-65
2022/10/27 09:41:39;;;;;;;;;4.00;2.50;;;;;16.41;68.22;101933.94;4965356;28;8852;-64
2022/10/27 09:44:27;;;;;;;;;1.25;1.00;;;;;16.47;68.21;101935.81;4954540;28;8831;-65
2022/10/27 09:46:55;;;;;;;;;4.00;4.00;;;;;16.53;67.83;101926.84;4961146;28;9557;-64
2022/10/27 09:49:28;;;;;;;;;3.00;3.00;;;;;16.56;67.26;101925.56;4952929;28;8842;-64
2022/10/27 09:52:02;;;;;;;;;2.25;2.25;;;;;16.61;67.67;101933.09;4957064;28;8838;-63
2022/10/27 09:54:32;;;;;;;;;3.25;3.25;;;;;16.49;67.27;101941.88;4959478;28;8831;-64
2022/10/27 09:57:11;;;;;;;;;3.00;3.00;;;;;16.58;67.49;101942.53;4956693;28;8852;-64
2022/10/27 09:59:39;;;;;;;;;3.00;3.00;;;;;16.62;67.47;101943.78;4973234;28;8875;-65
2022/10/27 10:02:23;;;;;;;;;2.00;2.00;;;;;16.56;67.08;101939.16;4966580;28;8842;-65
2022/10/27 10:04:50;;;;;;;;;4.00;2.00;;;;;16.60;66.91;101937.69;4973947;28;8918;-65
2022/10/27 10:07:39;;;;;;;;;2.25;2.25;;;;;16.55;67.19;101922.00;4974592;28;9590;-64
2022/10/27 10:10:20;;;;;;;;;3.25;2.00;;;;;16.52;67.58;101917.00;4972770;28;8867;-65
2022/10/27 10:13:00;;;;;;;;;1.25;1.25;;;;;16.53;67.43;101902.38;4960582;28;8842;-64
2022/10/27 10:15:27;;;;;;;;;5.75;4.25;;;;;16.54;67.49;101908.66;4970600;28;8823;-64
2022/10/27 10:17:56;;;;;;;;;3.00;2.75;;;;;16.48;67.61;101904.84;4963442;28;8864;-66
2022/10/27 10:20:40;;;;;;;;;2.25;2.25;;;;;16.51;67.64;101903.63;4968195;28;8884;-65
2022/10/27 10:23:30;;;;;;;;;3.00;3.00;;;;;16.47;67.84;101910.50;4967766;28;8966;-65
2022/10/27 10:25:59;;;;;;;;;2.00;2.00;;;;;16.48;67.71;101902.13;4973861;28;8862;-65
2022/10/27 10:28:33;;;;;;;;;3.00;2.50;;;;;16.56;67.76;101907.38;4966014;28;9538;-64
2022/10/27 10:31:03;;;;;;;;;3.00;2.75;;;;;16.53;67.52;101894.22;4962161;28;8863;-65
2022/10/27 10:33:34;;;;;;;;;2.00;2.00;;;;;16.63;67.25;101885.63;4966639;28;9686;-63
2022/10/27 10:36:26;;;;;;;;;2.00;2.00;;;;;16.69;67.31;101898.41;4958564;28;8879;-64
2022/10/27 10:38:57;;;;;;;;;5.00;3.50;;;;;16.66;67.28;101893.38;4972517;28;8832;-64
2022/10/27 10:41:26;;;;;;;;;6.00;4.00;;;;;16.62;67.48;101900.28;4970105;28;8840;-65
2022/10/27 10:44:15;;;;;;;;;3.75;3.75;;;;;16.66;67.44;101893.38;4965010;28;8895;-65
2022/10/27 10:46:56;;;;;;;;;4.25;3.75;;;;;16.63;67.47;101896.50;4961195;28;8840;-65
2022/10/27 10:49:44;;;;;;;;;6.25;5.00;;;;;16.61;67.74;101878.72;4968755;28;8840;-66
2022/10/27 10:52:21;;;;;;;;;3.25;3.25;;;;;16.64;67.45;101890.03;4960025;28;8935;-65
2022/10/27 10:54:47;;;;;;;;;4.25;4.00;;;;;16.66;67.64;101896.09;4954640;28;8835;-63
2022/10/27 10:57:34;;;;;;;;;4.75;4.75;;;;;16.75;67.34;101886.72;4962742;28;8856;-64
2022/10/27 11:00:05;;;;;;;;;3.00;3.00;;;;;16.76;67.45;101885.66;4968086;28;8832;-68
2022/10/27 11:02:33;;;;;;;;;2.75;2.75;;;;;16.83;67.23;101893.00;4965102;28;8845;-66
2022/10/27 11:05:12;;;;;;;;;4.00;2.75;;;;;16.77;67.14;101879.19;4962588;28;8891;-68
2022/10/27 11:07:39;;;;;;;;;3.75;2.50;;;;;16.82;67.50;101869.56;4958488;28;8849;-65
2022/10/27 11:10:11;;;;;;;;;2.00;2.00;;;;;16.78;67.62;101859.13;4959376;28;8881;-65
2022/10/27 11:12:46;;;;;;;;;3.00;2.25;;;;;16.80;67.45;101862.44;4963007;28;8868;-65
2022/10/27 11:15:21;;;;;;;;;1.00;1.00;;;;;16.92;67.48;101865.34;4954437;28;8831;-64
2022/10/27 11:17:51;;;;;;;;;3.25;3.00;;;;;17.00;67.47;101858.88;4968783;28;8860;-65
2022/10/27 11:20:23;;;;;;;;;3.00;3.00;;;;;16.97;66.94;101857.41;4965193;28;8910;-66
2022/10/27 11:22:52;;;;;;;;;6.25;4.00;;;;;16.95;67.45;101862.22;4962659;28;8842;-67
2022/10/27 11:25:22;;;;;;;;;3.25;2.50;;;;;17.04;67.00;101852.78;4956011;28;8854;-65
2022/10/27 11:28:00;;;;;;;;;3.00;3.00;;;;;17.06;67.13;101863.47;4962886;28;8824;-64
2022/10/27 11:30:28;;;;;;;;;1.50;1.50;;;;;17.11;66.97;101871.00;4974998;28;8871;-65
2022/10/27 11:33:06;;;;;;;;;1.50;1.50;;;;;17.19;66.80;101860.72;4955167;28;8876;-66
2022/10/27 11:35:49;;;;;;;;;2.00;2.00;;;;;17.09;66.88;101863.03;4952187;28;8858;-68
2022/10/27 11:38:35;;;;;;;;;5.00;2.25;;;;;17.11;67.07;101847.34;4959061;28;9535;-66
2022/10/27 11:41:18;;;;;;;;;2.00;1.75;;;;;17.10;67.19;101845.69;4966001;28;8873;-66
2022/10/27 11:44:00;;;;;;;;;2.00;2.00;;;;;17.23;66.75;101848.34;4964007;28;8836;-65
2022/10/27 11:46:43;;;;;;;;;1.75;1.00;;;;;17.26;66.98;101839.78;4965519;28;8882;-66
2022/10/27 11:49:33;;;;;;;;;1.00;1.00;;;;;17.29;66.84;101833.03;4965414;28;8865;-66
2022/10/27 11:52:34;;;;;;;;;2.25;2.00;;;;;17.21;67.29;101845.00;4969123;28;8843;-64